Time;durP1;ratioP1;P1;durP2;ratioP2;P2;SDS_P1;SDS_P2;PMS_P1;PMS_P2;Temp;Humidity;BMP_temperature;BMP_pressure;BME280_temperature;BME280_humidity;BME280_pressure;Samples;Min_cycle;Max_cycle;Signal;HPM_P1;HPM_P2
2022/05/01 00:02:23;;;;;;;1.33;0.45;;;;;;;21.95;37.10;101294.13;5034753;28;20018;-48
2022/05/01 00:04:49;;;;;;;1.58;0.68;;;;;;;21.75;37.35;101294.91;5034559;28;20389;-50
2022/05/01 00:07:15;;;;;;;2.70;1.00;;;;;;;21.82;36.44;101293.59;5034821;28;20104;-48
2022/05/01 00:09:42;;;;;;;6.40;1.00;;;;;;;21.69;36.50;101291.34;5034364;28;20052;-48
2022/05/01 00:12:09;;;;;;;2.42;1.33;;;;;;;21.87;37.31;101290.00;5034422;28;20027;-48
2022/05/01 00:14:35;;;;;;;4.43;1.05;;;;;;;21.81;36.87;101302.00;5034678;28;20021;-49
2022/05/01 00:17:02;;;;;;;2.72;0.93;;;;;;;21.84;36.23;101296.84;5034668;28;20026;-49
2022/05/01 00:19:28;;;;;;;3.35;1.20;;;;;;;21.79;36.76;101299.56;5034566;28;20057;-49
2022/05/01 00:21:58;;;;;;;4.88;1.23;;;;;;;21.88;35.31;101295.22;5034528;28;20434;-50
2022/05/01 00:24:25;;;;;;;4.53;1.02;;;;;;;21.85;36.85;101281.31;5034306;28;20034;-47
2022/05/01 00:26:52;;;;;;;1.52;0.70;;;;;;;21.63;36.28;101278.00;5034215;28;20037;-50
2022/05/01 00:29:18;;;;;;;2.50;1.00;;;;;;;21.11;37.52;101292.50;5034135;28;20045;-50
2022/05/01 00:31:44;;;;;;;3.85;1.00;;;;;;;21.13;37.39;101287.59;5034400;28;20021;-48
2022/05/01 00:36:55;;;;;;;7.63;1.47;;;;;;;20.59;38.59;101285.94;5034557;28;20037;-50
2022/05/01 00:39:21;;;;;;;4.13;1.02;;;;;;;20.57;38.71;101285.38;5034291;28;20691;-49
2022/05/01 00:41:48;;;;;;;6.30;1.50;;;;;;;20.44;38.41;101274.94;5034084;28;20022;-46
2022/05/01 00:44:16;;;;;;;2.65;1.23;;;;;;;20.36;38.07;101291.72;5033904;28;20030;-47
2022/05/01 00:46:51;;;;;;;6.07;1.35;;;;;;;20.00;38.90;101280.56;5033935;28;20474;-46
2022/05/01 00:49:18;;;;;;;4.22;1.73;;;;;;;19.59;38.56;101282.03;5034086;28;20108;-46
2022/05/01 00:51:59;;;;;;;5.18;1.33;;;;;;;19.50;39.70;101276.22;5033996;28;20424;-48
2022/05/01 00:54:30;;;;;;;4.72;1.48;;;;;;;19.13;40.93;101262.50;5033826;28;20018;-47
2022/05/01 00:57:05;;;;;;;2.88;1.25;;;;;;;19.19;41.42;101269.63;5034492;28;20037;-49
2022/05/01 00:59:32;;;;;;;3.28;1.95;;;;;;;19.03;40.53;101256.94;5034771;28;20470;-46
2022/05/01 01:01:59;;;;;;;4.43;1.30;;;;;;;18.71;40.66;101255.72;5033262;28;20079;-46
2022/05/01 01:04:25;;;;;;;3.75;1.30;;;;;;;18.68;41.07;101256.22;5034269;28;20041;-49
2022/05/01 01:06:51;;;;;;;4.43;1.50;;;;;;;18.58;41.21;101250.59;5032258;28;20034;-47
2022/05/01 01:09:18;;;;;;;2.88;1.33;;;;;;;18.37;41.69;101243.22;5033607;28;20022;-46
2022/05/01 01:11:45;;;;;;;5.03;1.92;;;;;;;18.20;41.79;101222.38;5033603;28;20026;-46
2022/05/01 01:14:12;;;;;;;7.03;1.65;;;;;;;18.18;41.87;101223.72;5033459;28;20074;-49
2022/05/01 01:16:39;;;;;;;3.70;1.52;;;;;;;18.23;41.61;101225.69;5033417;28;20022;-47
2022/05/01 01:19:09;;;;;;;7.03;1.85;;;;;;;18.16;41.24;101231.28;5033447;28;20025;-46
2022/05/01 01:21:36;;;;;;;3.60;1.45;;;;;;;18.15;41.31;101238.56;5033310;28;20022;-47
2022/05/01 01:24:08;;;;;;;3.53;1.55;;;;;;;18.13;42.15;101232.59;5033508;28;20409;-48
2022/05/01 01:26:36;;;;;;;11.60;1.70;;;;;;;18.12;41.58;101230.94;5033540;28;20053;-46
2022/05/01 01:31:40;;;;;;;9.30;2.50;;;;;;;18.22;41.12;101234.91;5033270;28;20104;-48
2022/05/01 01:31:50;;;;;;;5.03;1.60;;;;;;;18.10;40.09;101229.53;5033349;28;20089;-46
2022/05/01 01:34:19;;;;;;;4.13;1.70;;;;;;;18.10;40.99;101233.09;5032914;28;20018;-45
2022/05/01 01:36:47;;;;;;;4.25;1.80;;;;;;;17.87;41.02;101227.81;5033304;28;20033;-47
2022/05/01 01:39:18;;;;;;;6.15;2.03;;;;;;;18.00;41.34;101227.50;5033298;28;20402;-50
2022/05/01 01:41:46;;;;;;;6.88;2.05;;;;;;;17.93;41.88;101224.97;5033494;28;20445;-46
2022/05/01 01:44:13;;;;;;;4.03;1.45;;;;;;;18.15;41.95;101216.06;5032970;28;20041;-46
2022/05/01 01:46:39;;;;;;;6.65;2.17;;;;;;;18.07;41.56;101213.78;5033449;28;20026;-47
2022/05/01 01:49:10;;;;;;;8.35;2.35;;;;;;;18.15;42.14;101218.78;5033088;28;20029;-46
2022/05/01 01:51:37;;;;;;;8.48;2.28;;;;;;;17.91;42.85;101216.25;5032941;28;20017;-48
2022/05/01 01:54:04;;;;;;;8.85;2.42;;;;;;;17.79;42.01;101225.50;5032914;28;20071;-45
2022/05/01 01:56:31;;;;;;;9.05;2.60;;;;;;;17.60;41.15;101222.16;5032968;28;20021;-49
2022/05/01 01:58:57;;;;;;;8.20;2.70;;;;;;;17.50;40.97;101232.81;5033060;28;20501;-47
2022/05/01 02:01:24;;;;;;;10.32;2.35;;;;;;;17.24;41.91;101235.03;5033371;28;20112;-46
2022/05/01 02:03:50;;;;;;;12.43;3.10;;;;;;;17.00;41.65;101245.09;5033255;28;20021;-47
2022/05/01 02:06:16;;;;;;;11.20;2.75;;;;;;;17.26;40.92;101246.41;5032775;28;20026;-47
2022/05/01 02:08:43;;;;;;;12.43;2.95;;;;;;;17.30;39.82;101238.66;5032681;28;20033;-47
2022/05/01 02:11:10;;;;;;;6.85;2.70;;;;;;;17.26;40.14;101246.41;5032777;28;20070;-48
2022/05/01 02:13:37;;;;;;;5.78;2.42;;;;;;;17.21;40.98;101245.50;5031930;28;20063;-47
2022/05/01 02:16:04;;;;;;;10.00;2.88;;;;;;;17.28;40.45;101247.00;5032533;28;20490;-46
2022/05/01 02:18:30;;;;;;;7.30;3.28;;;;;;;17.19;40.91;101247.63;5032572;28;20060;-46
2022/05/01 02:23:41;;;;;;;11.18;3.10;;;;;;;17.13;41.95;101225.06;5033155;28;20394;-48
2022/05/01 02:26:07;;;;;;;9.48;3.03;;;;;;;16.72;42.99;101215.28;5032649;28;20029;-47
2022/05/01 02:28:33;;;;;;;9.75;3.13;;;;;;;16.45;44.47;101204.13;5032371;28;20048;-46
2022/05/01 02:31:01;;;;;;;10.50;3.08;;;;;;;16.12;45.36;101200.13;5032053;28;20050;-49
2022/05/01 02:33:27;;;;;;;11.25;2.85;;;;;;;15.95;46.05;101199.19;5032580;28;20121;-47
2022/05/01 02:35:53;;;;;;;9.43;3.42;;;;;;;15.84;46.16;101190.00;5032440;28;20420;-46
2022/05/01 02:38:19;;;;;;;11.20;3.60;;;;;;;15.78;46.36;101189.06;5032416;28;20045;-47
2022/05/01 02:40:46;;;;;;;13.98;3.72;;;;;;;15.56;47.08;101187.91;5032112;28;20072;-48
2022/05/01 02:43:12;;;;;;;12.13;3.38;;;;;;;15.35;47.72;101196.53;5032466;28;20037;-46
2022/05/01 02:45:39;;;;;;;10.38;3.55;;;;;;;15.07;48.60;101202.50;5032461;28;20025;-46
2022/05/01 02:48:05;;;;;;;11.25;3.50;;;;;;;14.86;49.07;101196.50;5032531;28;20035;-46
2022/05/01 02:50:32;;;;;;;14.57;4.45;;;;;;;14.83;49.19;101196.16;5032768;28;20060;-46
2022/05/01 02:52:59;;;;;;;13.50;3.75;;;;;;;14.63;50.33;101201.75;5032427;28;20021;-46
2022/05/01 02:55:25;;;;;;;13.85;3.63;;;;;;;14.67;50.22;101197.56;5032470;28;20124;-46
2022/05/01 02:57:51;;;;;;;13.90;3.60;;;;;;;14.70;50.28;101191.72;5032205;28;20460;-47
2022/05/01 03:00:17;;;;;;;15.50;4.60;;;;;;;14.48;50.69;101194.03;5032150;28;20036;-48
2022/05/01 03:02:48;;;;;;;15.60;4.47;;;;;;;14.34;50.88;101193.31;5032169;28;20369;-49
2022/05/01 03:05:15;;;;;;;19.33;4.55;;;;;;;14.24;51.40;101191.13;5032107;28;20021;-46
2022/05/01 03:07:42;;;;;;;16.13;4.78;;;;;;;14.03;51.86;101190.69;5032242;28;20466;-47
2022/05/01 03:10:10;;;;;;;16.00;5.13;;;;;;;14.06;51.54;101190.28;5032254;28;20040;-47
2022/05/01 03:12:37;;;;;;;11.45;4.15;;;;;;;14.05;51.49;101188.59;5031968;28;20156;-46
2022/05/01 03:15:07;;;;;;;17.70;3.40;;;;;;;13.93;51.83;101196.56;5031824;28;20512;-46
2022/05/01 03:23:04;;;;;;;15.23;4.43;;;;;;;13.86;51.91;101207.38;5032387;28;20095;-46
2022/05/01 03:25:30;;;;;;;11.77;4.28;;;;;;;13.69;52.46;101217.03;5033245;28;20028;-48
2022/05/01 03:27:57;;;;;;;15.20;4.00;;;;;;;13.82;52.14;101219.63;5035297;28;20025;-45
2022/05/01 03:30:24;;;;;;;14.90;4.00;;;;;;;13.80;52.49;101228.97;5035221;28;20088;-46
2022/05/01 03:32:51;;;;;;;17.13;4.95;;;;;;;13.53;53.19;101221.06;5035572;28;20449;-47
2022/05/01 03:35:18;;;;;;;17.77;5.43;;;;;;;13.55;52.90;101221.69;5017432;28;20120;-46
2022/05/01 03:37:45;;;;;;;14.85;3.88;;;;;;;13.50;53.07;101218.81;5035480;28;20029;-47
2022/05/01 03:40:14;;;;;;;12.02;3.58;;;;;;;13.55;53.06;101219.00;5035479;28;20018;-47
2022/05/01 03:42:42;;;;;;;20.52;4.40;;;;;;;13.32;54.15;101216.84;5035947;28;20029;-47
2022/05/01 03:45:09;;;;;;;16.25;4.13;;;;;;;13.31;53.63;101211.69;5035857;28;20052;-47
2022/05/01 03:47:37;;;;;;;13.63;4.20;;;;;;;13.24;54.64;101214.41;5035740;28;20101;-49
2022/05/01 03:50:05;;;;;;;16.67;4.78;;;;;;;13.12;54.53;101222.28;5034997;28;20044;-49
2022/05/01 03:52:33;;;;;;;17.15;3.97;;;;;;;13.02;54.79;101223.78;5035159;28;20029;-46
2022/05/01 03:54:59;;;;;;;18.90;4.18;;;;;;;13.17;54.15;101235.91;5034920;28;20474;-49
2022/05/01 03:57:25;;;;;;;14.65;3.85;;;;;;;13.03;54.25;101230.78;5034908;28;20035;-50
2022/05/01 03:59:52;;;;;;;27.60;8.73;;;;;;;13.19;53.95;101233.00;5034660;28;20525;-47
2022/05/01 04:02:18;;;;;;;14.15;4.20;;;;;;;13.34;53.22;101235.47;5035267;28;20029;-49
2022/05/01 04:04:45;;;;;;;17.40;4.10;;;;;;;13.23;53.62;101228.06;5035310;28;20532;-47
2022/05/01 04:07:11;;;;;;;12.23;3.80;;;;;;;13.27;53.76;101232.81;5034550;28;20029;-48
2022/05/01 04:09:38;;;;;;;11.68;3.88;;;;;;;13.22;54.13;101227.25;5034822;28;20022;-48
2022/05/01 04:12:05;;;;;;;12.70;4.00;;;;;;;13.26;54.05;101227.63;5016950;28;20022;-46
2022/05/01 04:14:33;;;;;;;11.15;3.50;;;;;;;13.30;53.84;101240.44;5034714;28;20033;-48
2022/05/01 04:16:59;;;;;;;11.40;3.30;;;;;;;13.39;53.65;101231.09;5034652;28;20026;-46
2022/05/01 04:19:27;;;;;;;17.85;3.95;;;;;;;13.46;53.40;101236.41;5034613;28;20501;-45
2022/05/01 04:21:53;;;;;;;15.35;4.13;;;;;;;13.42;53.79;101237.88;5034581;28;20048;-45
2022/05/01 04:24:19;;;;;;;15.75;3.63;;;;;;;13.36;54.39;101239.56;5034299;28;20104;-47
2022/05/01 04:26:45;;;;;;;14.73;4.00;;;;;;;13.34;54.38;101241.66;5035246;28;20462;-45
2022/05/01 04:31:56;;;;;;;12.50;4.03;;;;;;;13.46;54.52;101249.88;5034670;28;20508;-46
2022/05/01 04:34:23;;;;;;;15.80;4.85;;;;;;;13.23;54.91;101239.66;5034254;28;20262;-47
2022/05/01 04:36:49;;;;;;;15.30;4.03;;;;;;;13.16;55.55;101246.88;5033510;28;20082;-45
2022/05/01 04:39:15;;;;;;;19.25;4.03;;;;;;;13.28;55.25;101237.13;5034374;28;20533;-46
2022/05/01 04:41:41;;;;;;;14.35;4.28;;;;;;;13.32;54.97;101241.03;5034035;28;20071;-46
2022/05/01 04:44:08;;;;;;;10.27;3.42;;;;;;;13.30;54.95;101240.44;5034403;28;20108;-45
2022/05/01 04:46:34;;;;;;;11.80;3.67;;;;;;;13.28;55.60;101245.22;5034287;28;20025;-46
2022/05/01 04:49:00;;;;;;;13.85;3.92;;;;;;;13.22;55.74;101238.00;5034263;28;20489;-46
2022/05/01 04:51:26;;;;;;;21.80;4.32;;;;;;;13.31;55.64;101249.31;5034112;28;20389;-46
2022/05/01 04:53:52;;;;;;;14.52;4.38;;;;;;;13.28;56.10;101247.91;5034108;28;20022;-48
2022/05/01 04:59:20;;;;;;;15.95;4.35;;;;;;;13.22;56.64;101248.75;4973105;28;20460;-46
2022/05/01 05:01:47;;;;;;;13.77;4.10;;;;;;;13.10;56.66;101235.13;5021208;28;20052;-46
2022/05/01 05:04:13;;;;;;;17.88;5.20;;;;;;;13.13;56.55;101237.38;5034031;28;20037;-46
2022/05/01 05:06:40;;;;;;;15.90;3.88;;;;;;;13.12;56.11;101237.59;5033717;28;20029;-46
2022/05/01 05:11:50;;;;;;;18.40;4.32;;;;;;;12.93;56.68;101240.13;5033958;28;20516;-46
2022/05/01 05:14:17;;;;;;;14.23;4.63;;;;;;;12.99;56.40;101237.63;5033590;28;20033;-46
2022/05/01 05:16:43;;;;;;;12.00;3.83;;;;;;;12.90;56.97;101234.38;5033358;28;20029;-46
2022/05/01 05:19:09;;;;;;;12.48;3.70;;;;;;;12.91;57.31;101236.00;5033359;28;20100;-46
2022/05/01 05:21:36;;;;;;;18.50;4.28;;;;;;;12.88;57.35;101236.41;5033877;28;20021;-46
2022/05/01 05:24:02;;;;;;;16.35;4.68;;;;;;;12.68;57.96;101231.94;5033236;28;20385;-45
2022/05/01 05:26:28;;;;;;;16.05;4.60;;;;;;;12.83;57.86;101234.38;5033399;28;20048;-46
2022/05/01 05:28:54;;;;;;;16.85;4.55;;;;;;;12.76;58.10;101228.19;5033112;28;20045;-46
2022/05/01 05:31:20;;;;;;;16.17;4.70;;;;;;;12.68;57.77;101244.53;5033108;28;20042;-47
2022/05/01 05:33:47;;;;;;;16.08;4.28;;;;;;;12.74;57.69;101242.88;5033632;28;20048;-48
2022/05/01 05:36:13;;;;;;;15.60;5.70;;;;;;;12.74;57.61;101243.69;5033496;28;20041;-46
2022/05/01 05:38:39;;;;;;;15.30;4.22;;;;;;;12.68;57.79;101231.94;5033132;28;20021;-46
2022/05/01 05:41:05;;;;;;;12.90;3.90;;;;;;;12.64;58.03;101237.94;5033450;28;20367;-46
2022/05/01 05:43:32;;;;;;;16.58;4.55;;;;;;;12.60;57.79;101236.69;5033175;28;20116;-47
2022/05/01 05:45:58;;;;;;;14.40;4.63;;;;;;;12.56;58.02;101238.16;5033113;28;20033;-45
2022/05/01 05:48:24;;;;;;;10.50;3.60;;;;;;;12.60;58.47;101228.63;5032777;28;20026;-45
2022/05/01 05:50:50;;;;;;;16.67;4.28;;;;;;;12.56;58.95;101230.13;5032891;28;20029;-46
2022/05/01 05:53:17;;;;;;;17.38;4.00;;;;;;;12.59;58.22;101229.69;5032680;28;20052;-46
2022/05/01 05:55:45;;;;;;;18.63;5.05;;;;;;;12.59;57.75;101235.88;5033031;28;20112;-45
2022/05/01 05:58:11;;;;;;;11.05;4.57;;;;;;;12.66;57.90;101227.81;5032648;28;20025;-46
2022/05/01 06:00:37;;;;;;;12.68;4.20;;;;;;;12.64;57.86;101219.97;5032547;28;20021;-46
2022/05/01 06:03:03;;;;;;;14.65;3.55;;;;;;;12.62;57.44;101221.22;5032406;28;20029;-45
2022/05/01 06:05:30;;;;;;;16.00;4.07;;;;;;;12.62;57.33;101211.28;5032872;28;20100;-47
2022/05/01 06:07:56;;;;;;;12.25;3.47;;;;;;;12.43;58.01;101212.16;5032822;28;20532;-46
2022/05/01 06:10:22;;;;;;;13.38;3.80;;;;;;;12.52;57.66;101200.16;5032729;28;20022;-46
2022/05/01 06:12:49;;;;;;;14.23;3.88;;;;;;;12.61;56.55;101206.97;5032548;28;20026;-47
2022/05/01 06:15:15;;;;;;;14.75;4.80;;;;;;;12.62;56.76;101205.09;5032343;28;20040;-45
2022/05/01 06:17:41;;;;;;;16.25;4.13;;;;;;;12.57;57.55;101203.03;5032657;28;20469;-46
2022/05/01 06:20:08;;;;;;;19.65;5.20;;;;;;;12.57;57.49;101212.97;5032746;28;20028;-45
2022/05/01 06:22:34;;;;;;;15.02;4.55;;;;;;;12.60;57.54;101209.84;5032933;28;20474;-46
2022/05/01 06:25:00;;;;;;;12.73;3.78;;;;;;;12.65;57.04;101210.03;5033321;28;20032;-46
2022/05/01 06:27:26;;;;;;;11.60;3.70;;;;;;;12.75;56.58;101212.28;5032806;28;20030;-46
2022/05/01 06:29:52;;;;;;;14.45;4.40;;;;;;;12.77;56.54;101208.38;5032346;28;20053;-46
2022/05/01 06:32:19;;;;;;;21.33;3.97;;;;;;;12.85;56.01;101212.69;5032879;28;20427;-45
2022/05/01 06:34:46;;;;;;;15.23;3.83;;;;;;;12.85;56.24;101208.13;5032394;28;20026;-46
2022/05/01 06:37:13;;;;;;;16.88;4.55;;;;;;;12.85;55.91;101196.56;5032382;28;20477;-45
2022/05/01 06:39:40;;;;;;;9.05;3.63;;;;;;;12.77;56.02;101204.84;5032867;28;20022;-45
2022/05/01 06:42:06;;;;;;;17.25;3.83;;;;;;;12.75;56.10;101202.38;5032578;28;20029;-45
2022/05/01 06:44:32;;;;;;;11.70;3.58;;;;;;;12.74;56.43;101207.97;5032686;28;20029;-46
2022/05/01 06:46:59;;;;;;;14.30;4.10;;;;;;;12.69;56.37;101206.72;5032202;28;20022;-46
2022/05/01 06:49:25;;;;;;;12.10;3.65;;;;;;;12.78;56.46;101207.34;5032211;28;20029;-45
2022/05/01 06:51:51;;;;;;;18.27;3.90;;;;;;;12.58;56.90;101207.38;5032400;28;20450;-45
2022/05/01 06:54:18;;;;;;;11.70;2.85;;;;;;;12.51;57.44;101214.63;5032242;28;20033;-47
2022/05/01 06:56:44;;;;;;;10.13;3.45;;;;;;;12.50;57.30;101212.97;5032248;28;20030;-45
2022/05/01 06:59:11;;;;;;;14.93;3.28;;;;;;;12.62;57.11;101207.78;5032286;28;20470;-45
2022/05/01 07:01:37;;;;;;;18.00;4.18;;;;;;;12.65;56.75;101210.84;5035380;28;20462;-46
2022/05/01 07:04:03;;;;;;;18.25;3.42;;;;;;;12.49;57.13;101223.91;5035986;28;20397;-45
2022/05/01 07:06:30;;;;;;;10.07;3.20;;;;;;;12.53;56.92;101214.41;5036001;28;20029;-46
2022/05/01 07:08:56;;;;;;;10.73;3.60;;;;;;;12.43;57.20;101222.88;5018188;28;20454;-48
2022/05/01 07:11:22;;;;;;;7.20;3.03;;;;;;;12.50;57.11;101217.53;5018378;28;20088;-45
2022/05/01 07:13:48;;;;;;;10.35;3.17;;;;;;;12.38;57.15;101220.84;5035884;28;20359;-45
2022/05/01 07:16:15;;;;;;;7.85;3.10;;;;;;;12.48;57.04;101219.56;5035798;28;20064;-47
2022/05/01 07:18:41;;;;;;;7.82;3.10;;;;;;;12.50;57.26;101217.53;5035799;28;20496;-46
2022/05/01 07:21:09;;;;;;;12.45;3.45;;;;;;;12.55;56.28;101205.13;5035877;28;20034;-46
2022/05/01 07:23:35;;;;;;;11.23;3.30;;;;;;;12.49;56.73;101205.94;5035989;28;20029;-47
2022/05/01 07:26:01;;;;;;;10.00;3.20;;;;;;;12.46;56.87;101210.91;5035797;28;20108;-46
2022/05/01 07:28:27;;;;;;;12.50;3.58;;;;;;;12.48;56.35;101211.53;5035526;28;20151;-45
2022/05/01 07:30:54;;;;;;;9.27;3.00;;;;;;;12.35;56.90;101205.16;5035282;28;20049;-45
2022/05/01 07:33:20;;;;;;;9.98;3.03;;;;;;;12.31;57.15;101195.84;5035946;28;20018;-46
2022/05/01 07:35:46;;;;;;;10.30;3.35;;;;;;;12.45;56.83;101196.66;5035130;28;20032;-46
2022/05/01 07:38:12;;;;;;;12.40;3.33;;;;;;;12.48;57.23;101190.88;5035426;28;20025;-46
2022/05/01 07:40:39;;;;;;;12.10;3.03;;;;;;;12.51;56.64;101186.94;5035059;28;20030;-49
2022/05/01 07:43:05;;;;;;;9.23;3.13;;;;;;;12.46;57.14;101190.25;5035140;28;20029;-47
2022/05/01 07:45:32;;;;;;;10.15;2.70;;;;;;;12.42;57.72;101200.59;5035116;28;20382;-45
2022/05/01 07:47:59;;;;;;;13.02;3.33;;;;;;;12.43;57.56;101196.84;5035193;28;20075;-47
2022/05/01 07:50:25;;;;;;;12.38;3.05;;;;;;;12.51;57.24;101193.16;5035173;28;20406;-46
2022/05/01 07:52:52;;;;;;;10.57;2.83;;;;;;;12.57;56.80;101186.09;5034876;28;20458;-45
2022/05/01 07:55:18;;;;;;;10.68;3.03;;;;;;;12.52;57.26;101193.97;5035285;28;20493;-46
2022/05/01 07:57:45;;;;;;;9.20;3.20;;;;;;;12.54;57.15;101190.03;5034717;28;20083;-46
2022/05/01 08:00:13;;;;;;;14.30;3.38;;;;;;;12.53;56.91;101185.69;5034665;28;20493;-46
2022/05/01 08:05:27;;;;;;;9.95;3.17;;;;;;;12.42;58.26;101180.97;5035023;28;20136;-45
2022/05/01 08:07:54;;;;;;;9.32;2.92;;;;;;;12.42;58.04;101183.66;5034753;28;20037;-46
2022/05/01 08:10:21;;;;;;;11.00;3.10;;;;;;;12.36;58.19;101193.38;5034539;28;20485;-45
2022/05/01 08:12:48;;;;;;;10.20;2.90;;;;;;;12.34;58.04;101187.41;5033282;28;20079;-45
2022/05/01 08:15:20;;;;;;;8.25;3.40;;;;;;;12.45;57.87;101179.75;5034394;28;20033;-47
2022/05/01 08:17:46;;;;;;;9.10;3.15;;;;;;;12.43;57.80;101180.75;5034217;28;20026;-46
2022/05/01 08:23:09;;;;;;;14.35;2.97;;;;;;;12.29;59.40;101176.47;5035020;28;20032;-45
2022/05/01 08:25:37;;;;;;;9.13;2.78;;;;;;;12.26;59.35;101179.53;5034622;28;20468;-46
2022/05/01 08:28:06;;;;;;;9.95;3.05;;;;;;;12.28;59.73;101176.69;5034305;28;20160;-45
2022/05/01 08:30:32;;;;;;;6.43;2.47;;;;;;;12.17;60.21;101175.44;5034030;28;20135;-46
2022/05/01 08:32:59;;;;;;;13.40;3.03;;;;;;;12.15;60.49;101170.28;5034718;28;20543;-46
2022/05/01 08:35:25;;;;;;;10.45;2.40;;;;;;;12.04;61.03;101164.72;5034127;28;20095;-46
2022/05/01 08:37:51;;;;;;;11.38;2.80;;;;;;;11.92;61.62;101155.66;5034491;28;20025;-45
2022/05/01 08:40:18;;;;;;;9.52;3.47;;;;;;;12.15;61.08;101156.84;5033921;28;20100;-45
2022/05/01 08:42:46;;;;;;;11.80;3.15;;;;;;;12.06;59.48;101158.13;5034048;28;20030;-46
2022/05/01 08:45:15;;;;;;;6.25;2.42;;;;;;;11.97;60.77;101158.53;5033869;28;20478;-45
2022/05/01 08:47:55;;;;;;;7.40;2.60;;;;;;;11.87;60.68;101159.75;5033773;28;20040;-47
2022/05/01 08:50:23;;;;;;;10.32;2.75;;;;;;;11.85;61.47;101145.75;5033695;28;20026;-46
2022/05/01 08:52:51;;;;;;;7.00;2.35;;;;;;;11.85;61.29;101153.78;5033666;28;20132;-46
2022/05/01 08:55:18;;;;;;;14.48;2.47;;;;;;;11.76;61.77;101141.56;5033750;28;20037;-46
2022/05/01 08:57:44;;;;;;;7.50;2.42;;;;;;;11.84;61.43;101144.09;5034401;28;20029;-46
2022/05/01 09:00:11;;;;;;;8.05;2.78;;;;;;;11.88;60.86;101145.34;5033953;28;20417;-45
2022/05/01 09:02:38;;;;;;;7.85;2.58;;;;;;;11.95;60.44;101144.50;5033589;28;20022;-48
2022/05/01 09:05:04;;;;;;;8.48;2.47;;;;;;;11.98;59.95;101134.16;5033904;28;20038;-46
2022/05/01 09:07:31;;;;;;;12.65;2.60;;;;;;;11.95;60.23;101136.47;5034537;28;20052;-46
2022/05/01 09:09:57;;;;;;;11.00;3.30;;;;;;;11.98;60.58;101138.72;5034376;28;20098;-45
2022/05/01 09:15:11;;;;;;;5.88;2.20;;;;;;;11.92;60.59;101148.41;5033575;28;20033;-45
2022/05/01 09:17:38;;;;;;;11.35;2.65;;;;;;;11.94;60.97;101140.16;5033313;28;20030;-46
2022/05/01 09:20:09;;;;;;;10.43;2.97;;;;;;;12.04;60.92;101149.44;5033311;28;20163;-45
2022/05/01 09:22:55;;;;;;;12.30;3.05;;;;;;;11.94;60.83;101142.84;5032795;28;20032;-47
2022/05/01 09:25:24;;;;;;;10.23;2.53;;;;;;;12.15;60.23;101145.28;5033211;28;20033;-46
2022/05/01 09:27:57;;;;;;;9.80;2.92;;;;;;;12.04;60.54;101149.44;5033833;28;20021;-47
2022/05/01 09:30:35;;;;;;;11.75;3.00;;;;;;;12.12;60.04;101143.03;5032870;28;20061;-46
2022/05/01 09:33:03;;;;;;;10.13;2.85;;;;;;;12.05;60.13;101134.19;5033208;28;20025;-47
2022/05/01 09:35:33;;;;;;;9.70;2.30;;;;;;;12.09;60.02;101135.41;5032395;28;20327;-46
2022/05/01 09:38:25;;;;;;;11.68;2.90;;;;;;;12.08;60.41;101125.69;5033233;28;20022;-46
2022/05/01 09:40:58;;;;;;;9.13;2.45;;;;;;;11.91;60.60;101129.84;5033192;28;20029;-47
2022/05/01 09:43:44;;;;;;;8.20;2.55;;;;;;;11.87;60.40;101122.22;5032997;28;20041;-45
2022/05/01 09:46:12;;;;;;;7.25;2.83;;;;;;;11.87;60.45;101124.91;5033007;28;20018;-46
2022/05/01 09:48:38;;;;;;;8.68;2.47;;;;;;;11.83;60.37;101120.19;5032801;28;20022;-46
2022/05/01 09:51:18;;;;;;;9.02;3.10;;;;;;;11.74;60.51;101127.56;5032826;28;20025;-46
2022/05/01 09:53:46;;;;;;;9.40;2.53;;;;;;;11.75;60.53;101123.84;5032946;28;20053;-45
2022/05/01 09:56:12;;;;;;;6.13;2.22;;;;;;;11.72;60.15;101108.19;5032601;28;20031;-45
2022/05/01 09:58:43;;;;;;;8.02;2.45;;;;;;;11.76;60.09;101114.75;5032755;28;20060;-46
2022/05/01 10:01:12;;;;;;;8.35;2.70;;;;;;;11.76;60.16;101116.63;5032713;28;20389;-45
2022/05/01 10:03:47;;;;;;;7.47;3.08;;;;;;;11.81;59.76;101120.38;5032964;28;20049;-45
2022/05/01 10:06:15;;;;;;;13.35;3.45;;;;;;;11.76;60.10;101125.50;5032730;28;20097;-46
2022/05/01 10:08:44;;;;;;;8.88;2.78;;;;;;;11.67;60.12;101131.28;5032533;28;20101;-45
2022/05/01 10:11:16;;;;;;;8.60;3.10;;;;;;;11.59;60.51;101124.25;5033166;28;20366;-46
2022/05/01 10:13:44;;;;;;;9.50;2.80;;;;;;;11.76;60.40;101119.31;5032916;28;20036;-45
2022/05/01 10:16:15;;;;;;;11.85;3.58;;;;;;;11.64;60.27;101127.16;5032829;28;20033;-46
2022/05/01 10:18:45;;;;;;;15.43;3.55;;;;;;;11.65;60.54;101115.38;5032709;28;20382;-46
2022/05/01 10:21:12;;;;;;;14.27;4.53;;;;;;;11.46;61.55;101125.06;5032754;28;20076;-46
2022/05/01 10:23:40;;;;;;;19.80;4.50;;;;;;;11.49;62.08;101126.50;5032478;28;20093;-47
2022/05/01 10:26:30;;;;;;;13.15;4.18;;;;;;;11.51;62.20;101133.34;5032622;28;20040;-46
2022/05/01 10:29:19;;;;;;;15.27;4.32;;;;;;;11.52;62.81;101128.78;5032418;28;20026;-46
2022/05/01 10:32:21;;;;;;;12.23;4.10;;;;;;;11.40;62.70;101127.75;5032391;28;20037;-46
2022/05/01 10:35:13;;;;;;;12.82;4.38;;;;;;;11.24;62.67;101129.78;5032858;28;20033;-47
2022/05/01 10:38:09;;;;;;;13.70;3.88;;;;;;;11.16;62.91;101131.81;5036949;28;20032;-46
2022/05/01 10:40:43;;;;;;;9.00;3.92;;;;;;;11.16;62.42;101134.50;5036453;28;20030;-48
2022/05/01 10:43:26;;;;;;;13.02;3.40;;;;;;;11.17;62.79;101131.63;5036285;28;20025;-48
2022/05/01 10:45:54;;;;;;;10.05;3.55;;;;;;;11.16;62.72;101138.03;5036202;28;20052;-46
2022/05/01 10:48:41;;;;;;;10.73;3.80;;;;;;;11.15;62.74;101136.34;5036435;28;20359;-45
2022/05/01 10:51:47;;;;;;;9.38;3.40;;;;;;;11.04;63.00;101132.41;5036422;28;20017;-45
2022/05/01 10:54:13;;;;;;;10.02;3.40;;;;;;;11.06;63.09;101124.19;5036267;28;20037;-45
2022/05/01 10:56:41;;;;;;;16.60;5.07;;;;;;;10.95;63.00;101132.81;5036072;28;20439;-48
2022/05/01 10:59:29;;;;;;;16.73;4.93;;;;;;;10.92;63.33;101127.84;5035946;28;20028;-45
2022/05/01 11:02:23;;;;;;;12.98;4.70;;;;;;;10.75;64.27;101128.19;5034830;28;20060;-46
2022/05/01 11:04:52;;;;;;;12.40;3.90;;;;;;;10.80;63.82;101125.75;5024537;28;20065;-46
2022/05/01 11:07:20;;;;;;;13.43;3.47;;;;;;;10.76;63.46;101129.00;5036207;28;20031;-45
2022/05/01 11:09:48;;;;;;;13.85;3.67;;;;;;;10.74;63.15;101136.44;5035831;28;20032;-46
2022/05/01 11:12:17;;;;;;;16.85;3.75;;;;;;;10.68;63.71;101132.69;5036004;28;20049;-45
2022/05/01 11:14:57;;;;;;;13.40;4.05;;;;;;;10.77;63.30;101136.00;5035795;28;20101;-48
2022/05/01 11:17:49;;;;;;;16.88;4.32;;;;;;;10.53;64.40;101135.50;5035465;28;20021;-46
2022/05/01 11:20:19;;;;;;;13.65;4.68;;;;;;;10.79;64.31;101150.88;5035053;28;20034;-46
2022/05/01 11:22:46;;;;;;;16.35;4.30;;;;;;;10.52;64.67;101152.59;5035672;28;20029;-46
2022/05/01 11:25:30;;;;;;;15.50;4.78;;;;;;;10.09;66.45;101148.38;5035701;28;20080;-45
2022/05/01 11:27:57;;;;;;;9.32;3.35;;;;;;;10.44;64.41;101168.00;5035466;28;20029;-49
2022/05/01 11:30:31;;;;;;;17.52;4.03;;;;;;;10.41;64.66;101169.19;5035215;28;20045;-45
2022/05/01 11:33:02;;;;;;;17.30;4.13;;;;;;;10.07;65.99;101172.66;5035269;28;20056;-46
2022/05/01 11:35:54;;;;;;;12.65;3.53;;;;;;;10.05;65.75;101166.69;5035320;28;20283;-47
2022/05/01 11:38:23;;;;;;;10.10;3.53;;;;;;;10.07;65.65;101167.31;5035343;28;20051;-46
2022/05/01 11:40:59;;;;;;;12.77;4.35;;;;;;;10.07;65.31;101163.81;5035174;28;20017;-46
2022/05/01 11:43:28;;;;;;;9.13;3.65;;;;;;;10.00;66.04;101164.59;5035094;28;20025;-45
2022/05/01 11:45:56;;;;;;;19.15;4.35;;;;;;;9.29;69.47;101165.59;5034847;28;20087;-45
2022/05/01 11:48:23;;;;;;;14.10;3.75;;;;;;;8.93;70.85;101169.06;5035209;28;20029;-47
2022/05/01 11:50:52;;;;;;;13.63;4.82;;;;;;;8.95;70.80;101178.56;5035224;28;20030;-46
2022/05/01 11:53:30;;;;;;;13.07;4.15;;;;;;;9.22;69.80;101169.00;5035100;28;20037;-46
2022/05/01 12:04:31;;;;;;;16.35;3.88;;;;;;;9.05;69.79;101178.28;5035188;28;20115;-46